Time;durP1;ratioP1;P1;durP2;ratioP2;P2;SDS_P1;SDS_P2;PMS_P1;PMS_P2;Temp;Humidity;BMP_temperature;BMP_pressure;BME280_temperature;BME280_humidity;BME280_pressure;Samples;Min_cycle;Max_cycle;Signal;HPM_P1;HPM_P2
2021/03/24 00:00:37;;;;;;;;;;;13.00;60.20;;;;;;2097621;28;748;-48
2021/03/24 00:01:57;;;;;;;;;;;13.00;60.20;;;;;;2097839;28;1353;-48
2021/03/24 00:03:16;;;;;;;;;;;13.00;60.20;;;;;;2099519;28;1900;-48
2021/03/24 00:04:35;;;;;;;;;;;13.00;60.10;;;;;;2099722;28;721;-47
2021/03/24 00:05:54;;;;;;;;;;;13.00;60.10;;;;;;2099849;28;715;-49
2021/03/24 00:07:13;;;;;;;;;;;13.00;60.10;;;;;;2100147;28;730;-49
2021/03/24 00:08:33;;;;;;;;;;;13.00;60.10;;;;;;2099713;28;1004;-49
2021/03/24 00:09:52;;;;;;;;;;;13.00;60.10;;;;;;2096374;28;1135;-46
2021/03/24 00:11:12;;;;;;;;;;;13.00;60.10;;;;;;2097396;28;1488;-48
2021/03/24 00:12:33;;;;;;;;;;;13.00;60.80;;;;;;2099445;28;714;-47
2021/03/24 00:13:52;;;;;;;;;;;13.00;60.00;;;;;;2099747;28;791;-49
2021/03/24 00:15:11;;;;;;;;;;;13.00;60.10;;;;;;2098378;28;731;-47
2021/03/24 00:16:30;;;;;;;;;;;12.90;60.00;;;;;;2099415;28;772;-47
2021/03/24 00:17:50;;;;;;;;;;;12.90;59.90;;;;;;2099754;28;728;-47
2021/03/24 00:19:09;;;;;;;;;;;12.90;59.90;;;;;;2090801;28;753;-47
2021/03/24 00:20:29;;;;;;;;;;;12.90;60.70;;;;;;2096082;28;763;-46
2021/03/24 00:21:48;;;;;;;;;;;12.90;60.00;;;;;;2099155;28;1343;-47
2021/03/24 00:23:07;;;;;;;;;;;12.90;60.00;;;;;;2099004;28;1902;-47
2021/03/24 00:24:26;;;;;;;;;;;12.90;60.00;;;;;;2090416;28;721;-47
2021/03/24 00:25:45;;;;;;;;;;;12.90;60.70;;;;;;2095552;28;953;-48
2021/03/24 00:27:05;;;;;;;;;;;12.90;60.70;;;;;;2095824;28;1715;-48
2021/03/24 00:28:24;;;;;;;;;;;12.90;60.70;;;;;;2099373;28;741;-48
2021/03/24 00:29:43;;;;;;;;;;;12.90;60.00;;;;;;2099612;28;788;-48
2021/03/24 00:31:03;;;;;;;;;;;12.90;60.00;;;;;;2098923;28;745;-49
2021/03/24 00:32:22;;;;;;;;;;;12.90;60.10;;;;;;2095749;28;760;-49
2021/03/24 00:33:41;;;;;;;;;;;12.90;60.00;;;;;;2099510;28;803;-49
2021/03/24 00:35:01;;;;;;;;;;;12.90;60.00;;;;;;2098961;28;788;-47
2021/03/24 00:36:20;;;;;;;;;;;12.90;60.00;;;;;;2099714;28;705;-48
2021/03/24 00:37:39;;;;;;;;;;;12.90;60.00;;;;;;2099498;28;738;-48
2021/03/24 00:38:58;;;;;;;;;;;12.90;60.00;;;;;;2098786;28;1045;-48
2021/03/24 00:40:22;;;;;;;;;;;12.80;59.90;;;;;;2092304;28;1235;-48
2021/03/24 00:41:41;;;;;;;;;;;12.90;60.00;;;;;;2098897;28;1445;-49
2021/03/24 00:43:01;;;;;;;;;;;12.90;60.00;;;;;;2099253;28;1977;-49
2021/03/24 00:44:20;;;;;;;;;;;12.80;59.90;;;;;;2099695;28;709;-50
2021/03/24 00:45:40;;;;;;;;;;;12.80;59.90;;;;;;2098177;28;759;-47
2021/03/24 00:46:59;;;;;;;;;;;12.80;59.90;;;;;;2099382;28;714;-48
2021/03/24 00:48:19;;;;;;;;;;;12.80;59.90;;;;;;2099072;28;779;-48
2021/03/24 00:49:38;;;;;;;;;;;12.80;59.90;;;;;;2090784;28;787;-48
2021/03/24 00:50:58;;;;;;;;;;;12.80;59.90;;;;;;2095638;28;746;-47
2021/03/24 00:52:17;;;;;;;;;;;12.80;59.90;;;;;;2098876;28;732;-48
2021/03/24 00:53:36;;;;;;;;;;;12.80;59.90;;;;;;2099053;28;744;-47
2021/03/24 00:54:55;;;;;;;;;;;12.80;60.70;;;;;;2098108;28;735;-52
2021/03/24 00:56:14;;;;;;;;;;;12.80;60.70;;;;;;2099115;28;724;-52
2021/03/24 00:57:33;;;;;;;;;;;12.80;59.90;;;;;;2099615;28;704;-53
2021/03/24 00:58:53;;;;;;;;;;;12.80;59.90;;;;;;2098858;28;738;-51
2021/03/24 01:00:12;;;;;;;;;;;12.80;59.90;;;;;;2099318;28;727;-50
2021/03/24 01:01:31;;;;;;;;;;;12.80;59.90;;;;;;2098946;28;1365;-48
2021/03/24 01:02:50;;;;;;;;;;;12.80;59.90;;;;;;2098860;28;1964;-49
2021/03/24 01:04:10;;;;;;;;;;;12.80;59.90;;;;;;2099324;28;703;-52
2021/03/24 01:05:29;;;;;;;;;;;12.80;59.90;;;;;;2098098;28;756;-53
2021/03/24 01:06:49;;;;;;;;;;;12.70;59.90;;;;;;2098808;28;716;-53
2021/03/24 01:08:09;;;;;;;;;;;12.70;59.80;;;;;;2090411;28;799;-51
2021/03/24 01:09:29;;;;;;;;;;;12.70;59.90;;;;;;2095668;28;1425;-50
2021/03/24 01:10:48;;;;;;;;;;;12.70;59.90;;;;;;2087301;28;1020;-50
2021/03/24 01:12:07;;;;;;;;;;;12.70;60.70;;;;;;2095748;28;1383;-47
2021/03/24 01:13:26;;;;;;;;;;;12.70;60.60;;;;;;2098377;28;1006;-51
2021/03/24 01:14:45;;;;;;;;;;;12.70;60.60;;;;;;2095576;28;752;-48
2021/03/24 01:16:05;;;;;;;;;;;12.70;59.90;;;;;;2099207;28;811;-50
2021/03/24 01:17:24;;;;;;;;;;;12.70;59.90;;;;;;2099307;28;807;-51
2021/03/24 01:18:43;;;;;;;;;;;12.70;59.90;;;;;;2098929;28;721;-49
2021/03/24 01:20:03;;;;;;;;;;;12.70;59.90;;;;;;2099377;28;727;-49
2021/03/24 01:21:21;;;;;;;;;;;12.70;59.90;;;;;;2098479;28;1361;-52
2021/03/24 01:22:41;;;;;;;;;;;12.70;59.90;;;;;;2087052;28;1975;-50
2021/03/24 01:24:00;;;;;;;;;;;12.70;59.90;;;;;;2096101;28;704;-51
2021/03/24 01:25:20;;;;;;;;;;;12.70;59.90;;;;;;2098269;28;1027;-50
2021/03/24 01:26:39;;;;;;;;;;;12.70;59.90;;;;;;2098795;28;970;-51
2021/03/24 01:27:58;;;;;;;;;;;12.70;59.90;;;;;;2099032;28;725;-52
2021/03/24 01:29:17;;;;;;;;;;;12.70;60.60;;;;;;2090118;28;773;-50
2021/03/24 01:30:37;;;;;;;;;;;12.70;60.60;;;;;;2093747;28;1128;-51
2021/03/24 01:31:56;;;;;;;;;;;12.70;59.90;;;;;;2090677;28;1560;-49
2021/03/24 01:33:15;;;;;;;;;;;12.70;59.90;;;;;;2092804;28;1517;-51
2021/03/24 01:34:34;;;;;;;;;;;12.70;59.90;;;;;;2094601;28;1130;-52
2021/03/24 01:35:54;;;;;;;;;;;12.60;59.90;;;;;;2084338;28;1385;-53
2021/03/24 01:37:13;;;;;;;;;;;12.60;59.80;;;;;;2097007;28;1264;-49
2021/03/24 01:38:32;;;;;;;;;;;12.70;59.90;;;;;;2093415;28;1283;-51
2021/03/24 01:39:52;;;;;;;;;;;12.60;59.90;;;;;;2096378;28;1166;-50
2021/03/24 01:41:11;;;;;;;;;;;12.60;59.90;;;;;;2098071;28;1420;-51
2021/03/24 01:42:30;;;;;;;;;;;12.60;59.80;;;;;;2080202;28;1996;-54
2021/03/24 01:43:50;;;;;;;;;;;12.60;59.90;;;;;;2083843;28;1306;-49
2021/03/24 01:45:14;;;;;;;;;;;12.60;59.90;;;;;;2079400;28;1586;-51
2021/03/24 01:46:38;;;;;;;;;;;12.60;59.80;;;;;;2094467;28;1404;-51
2021/03/24 01:47:58;;;;;;;;;;;12.60;59.80;;;;;;2094431;28;1414;-48
2021/03/24 01:49:28;;;;;;;;;;;12.60;59.80;;;;;;2096370;28;1308;-48
2021/03/24 01:50:47;;;;;;;;;;;12.60;59.90;;;;;;2097012;28;1334;-53
2021/03/24 01:52:06;;;;;;;;;;;12.60;59.90;;;;;;2092174;28;1080;-48
2021/03/24 01:53:25;;;;;;;;;;;12.60;59.90;;;;;;2089331;28;1406;-50
2021/03/24 01:54:45;;;;;;;;;;;12.60;59.90;;;;;;2092620;28;1183;-50
2021/03/24 01:56:04;;;;;;;;;;;12.60;59.90;;;;;;2096107;28;1108;-52
2021/03/24 01:57:24;;;;;;;;;;;12.60;59.80;;;;;;2086386;28;1178;-51
2021/03/24 01:58:43;;;;;;;;;;;12.60;59.80;;;;;;2085245;28;1431;-51
2021/03/24 02:00:04;;;;;;;;;;;12.60;59.80;;;;;;2090867;28;1313;-49
2021/03/24 02:01:31;;;;;;;;;;;12.60;59.90;;;;;;2093083;28;1405;-51
2021/03/24 02:02:50;;;;;;;;;;;12.50;59.80;;;;;;2088770;28;1906;-48
2021/03/24 02:04:09;;;;;;;;;;;12.50;59.80;;;;;;2092578;28;1449;-49
2021/03/24 02:05:28;;;;;;;;;;;12.50;59.80;;;;;;2092202;28;1286;-48
2021/03/24 02:06:49;;;;;;;;;;;12.50;59.80;;;;;;2085439;28;1449;-48
2021/03/24 02:08:10;;;;;;;;;;;12.50;60.60;;;;;;2085451;28;1522;-48
2021/03/24 02:09:37;;;;;;;;;;;12.50;59.90;;;;;;2087316;28;1382;-51
2021/03/24 02:11:16;;;;;;;;;;;12.50;59.80;;;;;;2089649;28;1384;-49
2021/03/24 02:12:45;;;;;;;;;;;12.50;59.90;;;;;;2090384;28;1122;-50
2021/03/24 02:14:11;;;;;;;;;;;12.50;59.90;;;;;;2079879;28;1388;-50
2021/03/24 02:15:33;;;;;;;;;;;12.50;59.90;;;;;;2077185;28;1172;-52
2021/03/24 02:16:53;;;;;;;;;;;12.50;59.90;;;;;;2090293;28;1258;-52
2021/03/24 02:18:13;;;;;;;;;;;12.50;59.90;;;;;;2089118;28;1271;-48
2021/03/24 02:19:51;;;;;;;;;;;12.50;59.90;;;;;;2092583;28;1242;-49
2021/03/24 02:21:11;;;;;;;;;;;12.50;60.60;;;;;;2091403;28;1823;-50
2021/03/24 02:22:30;;;;;;;;;;;12.50;59.90;;;;;;2082320;28;1906;-50
2021/03/24 02:24:08;;;;;;;;;;;12.50;59.80;;;;;;2086159;28;1402;-49
2021/03/24 02:25:32;;;;;;;;;;;12.50;59.80;;;;;;2091806;28;1201;-51
2021/03/24 02:27:07;;;;;;;;;;;12.50;59.80;;;;;;2083848;28;1351;-50
2021/03/24 02:28:27;;;;;;;;;;;12.40;59.80;;;;;;2095104;28;1415;-52
2021/03/24 02:29:48;;;;;;;;;;;12.50;59.90;;;;;;2096363;28;1240;-49
2021/03/24 02:31:09;;;;;;;;;;;12.50;59.90;;;;;;2093296;28;1830;-52
2021/03/24 02:32:29;;;;;;;;;;;12.40;59.80;;;;;;2091079;28;1207;-53
2021/03/24 02:33:48;;;;;;;;;;;12.40;59.80;;;;;;2084655;28;1313;-49
2021/03/24 02:35:16;;;;;;;;;;;12.40;59.90;;;;;;2092828;28;1201;-49
2021/03/24 02:36:35;;;;;;;;;;;12.40;59.80;;;;;;2096858;28;1397;-51
2021/03/24 02:37:55;;;;;;;;;;;12.40;59.80;;;;;;2092889;28;1326;-53
2021/03/24 02:39:15;;;;;;;;;;;12.40;59.90;;;;;;2093457;28;1192;-48
2021/03/24 02:40:34;;;;;;;;;;;12.40;59.90;;;;;;2096795;28;1265;-53
2021/03/24 02:41:53;;;;;;;;;;;12.40;59.90;;;;;;2096406;28;1407;-50
2021/03/24 02:43:12;;;;;;;;;;;12.40;59.90;;;;;;2090614;28;1910;-49
2021/03/24 02:44:32;;;;;;;;;;;12.40;59.90;;;;;;2093535;28;1370;-48
2021/03/24 02:45:51;;;;;;;;;;;12.40;60.00;;;;;;2095843;28;1121;-47
2021/03/24 02:47:10;;;;;;;;;;;12.40;60.80;;;;;;2087656;28;1374;-47
2021/03/24 02:48:30;;;;;;;;;;;12.40;60.70;;;;;;2090753;28;1261;-48
2021/03/24 02:49:49;;;;;;;;;;;12.40;60.00;;;;;;2093309;28;1288;-48
2021/03/24 02:51:17;;;;;;;;;;;12.40;60.10;;;;;;2093673;28;1426;-48
2021/03/24 02:52:35;;;;;;;;;;;12.40;59.90;;;;;;2092041;28;1191;-47
2021/03/24 02:53:54;;;;;;;;;;;12.40;60.00;;;;;;2084970;28;1237;-48
2021/03/24 02:55:14;;;;;;;;;;;12.40;59.90;;;;;;2084112;28;1521;-47
2021/03/24 02:56:33;;;;;;;;;;;12.40;59.90;;;;;;2090218;28;1364;-48
2021/03/24 02:57:52;;;;;;;;;;;12.40;60.80;;;;;;2090643;28;1326;-47
2021/03/24 02:59:11;;;;;;;;;;;12.40;60.10;;;;;;2092186;28;1327;-47
2021/03/24 03:00:31;;;;;;;;;;;12.30;60.00;;;;;;2095348;28;1233;-47
2021/03/24 03:01:50;;;;;;;;;;;12.40;60.00;;;;;;2090092;28;1400;-47
2021/03/24 03:03:33;;;;;;;;;;;12.30;60.00;;;;;;2093421;28;2003;-48
2021/03/24 03:04:59;;;;;;;;;;;12.30;60.00;;;;;;2091657;28;1205;-48
2021/03/24 03:06:19;;;;;;;;;;;12.30;59.90;;;;;;2077979;28;1368;-47
2021/03/24 03:07:40;;;;;;;;;;;12.30;60.00;;;;;;2085150;28;1300;-47
2021/03/24 03:09:01;;;;;;;;;;;12.30;60.10;;;;;;2093820;28;1223;-48
2021/03/24 03:10:22;;;;;;;;;;;12.30;60.10;;;;;;2082181;28;1332;-48
2021/03/24 03:12:11;;;;;;;;;;;12.30;60.80;;;;;;2091048;28;1521;-48
2021/03/24 03:13:37;;;;;;;;;;;12.30;60.00;;;;;;2091513;28;1383;-48
2021/03/24 03:14:57;;;;;;;;;;;12.30;60.10;;;;;;2094412;28;1499;-48
2021/03/24 03:16:18;;;;;;;;;;;12.30;60.20;;;;;;2095728;28;1187;-47
2021/03/24 03:17:57;;;;;;;;;;;12.30;60.20;;;;;;2096445;28;1344;-47
2021/03/24 03:19:46;;;;;;;;;;;12.30;60.20;;;;;;2096563;28;1165;-47
2021/03/24 03:21:10;;;;;;;;;;;12.30;60.20;;;;;;2093657;28;1399;-47
2021/03/24 03:22:31;;;;;;;;;;;12.30;60.20;;;;;;2090507;28;1969;-48
2021/03/24 03:23:50;;;;;;;;;;;12.30;60.30;;;;;;2077822;28;2165;-46
2021/03/24 03:25:20;;;;;;;;;;;12.30;60.30;;;;;;2087905;28;1320;-47
2021/03/24 03:26:40;;;;;;;;;;;12.30;60.30;;;;;;2085162;28;1081;-46
2021/03/24 03:28:00;;;;;;;;;;;12.30;60.20;;;;;;2090435;28;1247;-48
2021/03/24 03:29:19;;;;;;;;;;;12.30;60.20;;;;;;2092538;28;1256;-46
2021/03/24 03:30:39;;;;;;;;;;;12.20;60.10;;;;;;2096224;28;1345;-48
2021/03/24 03:31:57;;;;;;;;;;;12.20;60.20;;;;;;2093000;28;1407;-47
2021/03/24 03:33:18;;;;;;;;;;;12.20;60.10;;;;;;2095598;28;1403;-48
2021/03/24 03:34:38;;;;;;;;;;;12.20;60.20;;;;;;2091582;28;1408;-48
2021/03/24 03:35:57;;;;;;;;;;;12.20;60.10;;;;;;2084572;28;1122;-47
2021/03/24 03:37:16;;;;;;;;;;;12.20;60.20;;;;;;2092126;28;1518;-48
2021/03/24 03:38:35;;;;;;;;;;;12.20;60.20;;;;;;2096645;28;1358;-47
2021/03/24 03:39:55;;;;;;;;;;;12.20;60.20;;;;;;2085129;28;1455;-47
2021/03/24 03:41:14;;;;;;;;;;;12.20;60.20;;;;;;2096692;28;1530;-47
2021/03/24 03:42:33;;;;;;;;;;;12.20;60.20;;;;;;2082541;28;1898;-47
2021/03/24 03:43:53;;;;;;;;;;;12.20;60.20;;;;;;2082174;28;1082;-47
2021/03/24 03:45:12;;;;;;;;;;;12.20;60.30;;;;;;2078696;28;1547;-47
2021/03/24 03:46:31;;;;;;;;;;;12.20;60.20;;;;;;2088102;28;1377;-47
2021/03/24 03:47:51;;;;;;;;;;;12.20;60.20;;;;;;2084642;28;1355;-49
2021/03/24 03:49:10;;;;;;;;;;;12.20;60.20;;;;;;2092346;28;1247;-48
2021/03/24 03:50:29;;;;;;;;;;;12.20;60.20;;;;;;2093286;28;1229;-48
2021/03/24 03:51:49;;;;;;;;;;;12.20;60.20;;;;;;2092605;28;1508;-47
2021/03/24 03:53:17;;;;;;;;;;;12.20;60.30;;;;;;2091905;28;1419;-49
2021/03/24 03:54:41;;;;;;;;;;;12.20;60.30;;;;;;2091974;28;1263;-46
2021/03/24 03:56:07;;;;;;;;;;;12.10;60.90;;;;;;2089328;28;1359;-47
2021/03/24 03:57:30;;;;;;;;;;;12.10;60.20;;;;;;2088352;28;1491;-47
2021/03/24 03:59:13;;;;;;;;;;;12.10;60.20;;;;;;2087392;28;1421;-48
2021/03/24 04:00:34;;;;;;;;;;;12.20;60.20;;;;;;2094608;28;1783;-47
2021/03/24 04:01:54;;;;;;;;;;;12.10;60.20;;;;;;2088564;28;1430;-47
2021/03/24 04:03:14;;;;;;;;;;;12.10;60.20;;;;;;2094467;28;1927;-47
2021/03/24 04:04:36;;;;;;;;;;;12.10;60.20;;;;;;2090393;28;1081;-46
2021/03/24 04:06:01;;;;;;;;;;;12.10;60.20;;;;;;2095459;28;1220;-48
2021/03/24 04:07:23;;;;;;;;;;;12.10;60.20;;;;;;2082345;28;1656;-47
2021/03/24 04:08:43;;;;;;;;;;;12.10;60.20;;;;;;2082473;28;1290;-47
2021/03/24 04:10:02;;;;;;;;;;;12.10;60.20;;;;;;2087341;28;1238;-47
2021/03/24 04:11:22;;;;;;;;;;;12.10;60.20;;;;;;2082184;28;1471;-48
2021/03/24 04:12:42;;;;;;;;;;;12.10;60.30;;;;;;2083795;28;1375;-47
2021/03/24 04:14:02;;;;;;;;;;;12.10;60.20;;;;;;2092320;28;1391;-46
2021/03/24 04:15:23;;;;;;;;;;;12.10;60.30;;;;;;2080756;28;1930;-46
2021/03/24 04:16:42;;;;;;;;;;;12.10;60.30;;;;;;2087776;28;1352;-48
2021/03/24 04:18:02;;;;;;;;;;;12.10;60.20;;;;;;2089822;28;1303;-47
2021/03/24 04:19:25;;;;;;;;;;;12.10;60.20;;;;;;2091421;28;1374;-46
2021/03/24 04:20:44;;;;;;;;;;;12.10;60.20;;;;;;2090414;28;1500;-46
2021/03/24 04:22:03;;;;;;;;;;;12.10;60.30;;;;;;2088072;28;1518;-47
2021/03/24 04:23:23;;;;;;;;;;;12.10;60.20;;;;;;2089946;28;1983;-47
2021/03/24 04:24:43;;;;;;;;;;;12.10;60.30;;;;;;2092162;28;1345;-46
2021/03/24 04:26:07;;;;;;;;;;;12.00;60.10;;;;;;2089122;28;1318;-47
2021/03/24 04:27:27;;;;;;;;;;;12.00;60.20;;;;;;2092277;28;1444;-47
2021/03/24 04:28:47;;;;;;;;;;;12.00;60.80;;;;;;2084743;28;1322;-47
2021/03/24 04:30:08;;;;;;;;;;;12.10;60.40;;;;;;2085845;28;1390;-49
2021/03/24 04:31:27;;;;;;;;;;;12.10;60.10;;;;;;2089204;28;1422;-49
2021/03/24 04:32:46;;;;;;;;;;;12.10;60.20;;;;;;2079909;28;1372;-49
2021/03/24 04:34:06;;;;;;;;;;;12.10;60.10;;;;;;2086021;28;1383;-47
2021/03/24 04:35:25;;;;;;;;;;;12.10;60.10;;;;;;2082161;28;1177;-47
2021/03/24 04:36:53;;;;;;;;;;;12.10;59.90;;;;;;2086284;28;1845;-46
2021/03/24 04:38:16;;;;;;;;;;;12.10;59.90;;;;;;2086881;28;1306;-47
2021/03/24 04:39:42;;;;;;;;;;;12.10;59.90;;;;;;2088615;28;1323;-46
2021/03/24 04:41:05;;;;;;;;;;;12.10;59.90;;;;;;2081612;28;1261;-47
2021/03/24 04:42:35;;;;;;;;;;;12.10;60.20;;;;;;2091250;28;1178;-46
2021/03/24 04:43:56;;;;;;;;;;;12.10;60.50;;;;;;2088086;28;1431;-47
2021/03/24 04:45:34;;;;;;;;;;;12.10;60.80;;;;;;2087115;28;1278;-49
2021/03/24 04:46:55;;;;;;;;;;;12.00;60.70;;;;;;2087992;28;1266;-48
2021/03/24 04:48:28;;;;;;;;;;;12.00;60.80;;;;;;2094585;28;1205;-47
2021/03/24 04:49:51;;;;;;;;;;;12.00;61.50;;;;;;2093313;28;1434;-46
2021/03/24 04:51:12;;;;;;;;;;;12.00;60.80;;;;;;2090022;28;1460;-47
2021/03/24 04:52:31;;;;;;;;;;;12.00;61.00;;;;;;2093178;28;1247;-49
2021/03/24 04:53:52;;;;;;;;;;;12.00;60.90;;;;;;2093598;28;1200;-47
2021/03/24 04:55:12;;;;;;;;;;;12.00;60.90;;;;;;2092093;28;1311;-48
2021/03/24 04:56:32;;;;;;;;;;;12.00;61.00;;;;;;2085144;28;1389;-48
2021/03/24 04:57:55;;;;;;;;;;;12.00;61.00;;;;;;2084864;28;1264;-48
2021/03/24 04:59:15;;;;;;;;;;;12.00;60.90;;;;;;2091602;28;1146;-47
2021/03/24 05:00:42;;;;;;;;;;;12.00;61.10;;;;;;2085644;28;1171;-48
2021/03/24 05:02:05;;;;;;;;;;;12.00;61.10;;;;;;2091614;28;1505;-47
2021/03/24 05:03:25;;;;;;;;;;;12.00;61.20;;;;;;2089167;28;1968;-48
2021/03/24 05:04:46;;;;;;;;;;;12.00;61.10;;;;;;2087743;28;1314;-47
2021/03/24 05:06:06;;;;;;;;;;;12.00;61.10;;;;;;2094403;28;1443;-47
2021/03/24 05:07:34;;;;;;;;;;;12.00;61.10;;;;;;2096338;28;1202;-47
2021/03/24 05:08:53;;;;;;;;;;;12.00;61.20;;;;;;2092724;28;1209;-48
2021/03/24 05:10:19;;;;;;;;;;;12.00;61.10;;;;;;2073708;28;1450;-48
2021/03/24 05:11:44;;;;;;;;;;;12.00;61.10;;;;;;2081974;28;1427;-47
2021/03/24 05:13:03;;;;;;;;;;;12.00;61.10;;;;;;2090937;28;1276;-48
2021/03/24 05:14:38;;;;;;;;;;;12.00;61.20;;;;;;2092302;28;1205;-48
2021/03/24 05:15:58;;;;;;;;;;;11.90;60.90;;;;;;2090745;28;1267;-47
2021/03/24 05:17:19;;;;;;;;;;;11.90;60.90;;;;;;2092966;28;1280;-51
2021/03/24 05:18:38;;;;;;;;;;;11.90;60.90;;;;;;2091343;28;1255;-46
2021/03/24 05:20:02;;;;;;;;;;;11.90;60.90;;;;;;2089936;28;1307;-47
2021/03/24 05:21:34;;;;;;;;;;;11.90;60.90;;;;;;2084396;28;1447;-46
2021/03/24 05:22:54;;;;;;;;;;;11.90;61.00;;;;;;2088531;28;1913;-46
2021/03/24 05:24:13;;;;;;;;;;;11.90;60.80;;;;;;2089959;28;1191;-49
2021/03/24 05:25:37;;;;;;;;;;;11.90;60.90;;;;;;2089958;28;1274;-47
2021/03/24 05:27:14;;;;;;;;;;;11.90;60.80;;;;;;2088321;28;1290;-48
2021/03/24 05:28:37;;;;;;;;;;;11.90;60.90;;;;;;2091790;28;1302;-47
2021/03/24 05:29:58;;;;;;;;;;;11.90;60.90;;;;;;2090117;28;1269;-48
2021/03/24 05:31:18;;;;;;;;;;;11.90;60.90;;;;;;2090337;28;1398;-49
2021/03/24 05:32:39;;;;;;;;;;;11.90;60.90;;;;;;2081281;28;1288;-47
2021/03/24 05:34:00;;;;;;;;;;;11.90;60.90;;;;;;2088071;28;1196;-49
2021/03/24 05:35:24;;;;;;;;;;;11.90;61.00;;;;;;2088294;28;1574;-48
2021/03/24 05:36:44;;;;;;;;;;;11.90;60.90;;;;;;2089701;28;1503;-47
2021/03/24 05:38:04;;;;;;;;;;;11.90;60.90;;;;;;2090544;28;1151;-48
2021/03/24 05:39:27;;;;;;;;;;;11.90;61.00;;;;;;2091490;28;1324;-49
2021/03/24 05:40:49;;;;;;;;;;;11.90;60.90;;;;;;2090224;28;1276;-48
2021/03/24 05:42:27;;;;;;;;;;;11.90;60.60;;;;;;2091658;28;1355;-48
2021/03/24 05:43:56;;;;;;;;;;;11.90;60.30;;;;;;2090966;28;1097;-49
2021/03/24 05:45:15;;;;;;;;;;;11.90;59.40;;;;;;2091308;28;1130;-48
2021/03/24 05:46:37;;;;;;;;;;;11.90;59.30;;;;;;2090923;28;1333;-47
2021/03/24 05:48:15;;;;;;;;;;;11.90;59.00;;;;;;2090856;28;1361;-48
2021/03/24 05:49:39;;;;;;;;;;;11.90;58.80;;;;;;2090188;28;1289;-48
2021/03/24 05:51:02;;;;;;;;;;;11.80;58.90;;;;;;2088862;28;1246;-48
2021/03/24 05:52:21;;;;;;;;;;;11.80;59.20;;;;;;2091369;28;1138;-48
2021/03/24 05:53:44;;;;;;;;;;;11.80;59.50;;;;;;2088858;28;1243;-48
2021/03/24 05:55:22;;;;;;;;;;;11.80;59.60;;;;;;2090130;28;1185;-47
2021/03/24 05:56:53;;;;;;;;;;;11.80;59.60;;;;;;2092745;28;1239;-47
2021/03/24 05:58:18;;;;;;;;;;;11.80;59.70;;;;;;2090623;28;1285;-48
2021/03/24 05:59:49;;;;;;;;;;;11.80;59.70;;;;;;2090743;28;1259;-48
2021/03/24 06:01:26;;;;;;;;;;;11.80;60.30;;;;;;2094779;28;1282;-47
2021/03/24 06:02:47;;;;;;;;;;;11.90;59.70;;;;;;2081442;28;1926;-46
2021/03/24 06:04:07;;;;;;;;;;;11.90;59.70;;;;;;2090080;28;1396;-47
2021/03/24 06:05:29;;;;;;;;;;;11.90;59.60;;;;;;2089541;28;1222;-47
2021/03/24 06:07:02;;;;;;;;;;;12.00;59.50;;;;;;2087226;28;1185;-47
2021/03/24 06:08:27;;;;;;;;;;;12.00;59.40;;;;;;2088812;28;1256;-46
2021/03/24 06:09:51;;;;;;;;;;;12.10;59.20;;;;;;2089793;28;1370;-47
2021/03/24 06:11:13;;;;;;;;;;;12.10;59.10;;;;;;2082209;28;1401;-47
2021/03/24 06:12:39;;;;;;;;;;;12.20;58.90;;;;;;2087884;28;1342;-47
2021/03/24 06:14:17;;;;;;;;;;;12.20;58.60;;;;;;2092487;28;1254;-46
2021/03/24 06:15:39;;;;;;;;;;;12.30;58.50;;;;;;2081698;28;1281;-48
2021/03/24 06:17:17;;;;;;;;;;;12.40;58.40;;;;;;2085785;28;1275;-48
2021/03/24 06:19:00;;;;;;;;;;;12.40;58.20;;;;;;2091079;28;892;-48
2021/03/24 06:20:23;;;;;;;;;;;12.50;58.00;;;;;;2103073;28;1293;-49
2021/03/24 06:21:51;;;;;;;;;;;12.50;57.80;;;;;;2088507;28;1501;-48
2021/03/24 06:23:16;;;;;;;;;;;12.60;57.60;;;;;;2093295;28;1906;-47
2021/03/24 06:24:35;;;;;;;;;;;12.60;57.60;;;;;;2089872;28;1418;-48
2021/03/24 06:25:54;;;;;;;;;;;12.70;58.10;;;;;;2088456;28;1229;-48
2021/03/24 06:27:32;;;;;;;;;;;12.80;57.60;;;;;;2089499;28;1426;-46
2021/03/24 06:29:04;;;;;;;;;;;12.90;57.40;;;;;;2093553;28;1151;-47
2021/03/24 06:30:43;;;;;;;;;;;12.90;57.00;;;;;;2082006;28;1092;-46
2021/03/24 06:32:08;;;;;;;;;;;13.00;56.70;;;;;;2087971;28;1529;-46
2021/03/24 06:33:46;;;;;;;;;;;13.10;56.40;;;;;;2086758;28;1213;-48
2021/03/24 06:35:14;;;;;;;;;;;13.10;56.70;;;;;;2089330;28;1123;-48
2021/03/24 06:36:48;;;;;;;;;;;13.20;55.90;;;;;;2090890;28;1427;-46
2021/03/24 06:38:09;;;;;;;;;;;13.20;55.60;;;;;;2089016;28;1105;-46
2021/03/24 06:39:47;;;;;;;;;;;13.20;55.40;;;;;;2089945;28;1244;-46
2021/03/24 06:41:45;;;;;;;;;;;13.30;55.30;;;;;;2089408;28;1085;-49
2021/03/24 06:43:10;;;;;;;;;;;13.30;55.20;;;;;;2097590;28;1926;-47
2021/03/24 06:44:45;;;;;;;;;;;13.30;55.20;;;;;;2096563;28;1390;-47
2021/03/24 06:46:04;;;;;;;;;;;13.30;55.10;;;;;;2089332;28;1625;-47
2021/03/24 06:47:38;;;;;;;;;;;13.30;55.20;;;;;;2094343;28;1323;-47
2021/03/24 06:48:59;;;;;;;;;;;13.30;55.20;;;;;;2091015;28;1265;-48
2021/03/24 06:50:37;;;;;;;;;;;13.30;55.20;;;;;;2089949;28;1270;-48
2021/03/24 06:52:15;;;;;;;;;;;13.30;55.20;;;;;;2091972;28;1516;-50
2021/03/24 06:53:47;;;;;;;;;;;13.30;55.80;;;;;;2089692;28;1165;-47
2021/03/24 06:55:09;;;;;;;;;;;13.30;55.40;;;;;;2090228;28;1286;-48
2021/03/24 06:56:36;;;;;;;;;;;13.30;55.40;;;;;;2090143;28;1171;-47
2021/03/24 06:57:58;;;;;;;;;;;13.30;55.50;;;;;;2085286;28;1228;-47
2021/03/24 06:59:36;;;;;;;;;;;13.30;56.20;;;;;;2090774;28;989;-46
2021/03/24 07:01:04;;;;;;;;;;;13.30;55.90;;;;;;2089241;28;1288;-47
2021/03/24 07:02:28;;;;;;;;;;;13.30;56.40;;;;;;2090511;28;1179;-47
2021/03/24 07:03:59;;;;;;;;;;;13.30;56.40;;;;;;2081516;28;2167;-47
2021/03/24 07:05:18;;;;;;;;;;;13.30;56.50;;;;;;2085175;28;1286;-47
2021/03/24 07:06:40;;;;;;;;;;;13.30;56.40;;;;;;2088575;28;1327;-47
2021/03/24 07:08:16;;;;;;;;;;;13.30;56.50;;;;;;2076313;28;1322;-47
2021/03/24 07:09:41;;;;;;;;;;;13.20;56.60;;;;;;2089013;28;1113;-47
2021/03/24 07:11:04;;;;;;;;;;;13.20;56.70;;;;;;2091736;28;1167;-47
2021/03/24 07:12:29;;;;;;;;;;;13.20;56.80;;;;;;2091922;28;1160;-48
2021/03/24 07:13:55;;;;;;;;;;;13.20;57.00;;;;;;2090309;28;1199;-48
2021/03/24 07:15:28;;;;;;;;;;;13.10;57.50;;;;;;2077026;28;1177;-48
2021/03/24 07:17:00;;;;;;;;;;;13.10;57.10;;;;;;2086663;28;1292;-48
2021/03/24 07:18:34;;;;;;;;;;;13.10;57.10;;;;;;2079508;28;1317;-47
2021/03/24 07:20:14;;;;;;;;;;;13.10;57.20;;;;;;2085960;28;1173;-47
2021/03/24 07:21:40;;;;;;;;;;;13.10;57.30;;;;;;2087657;28;1474;-48
2021/03/24 07:23:18;;;;;;;;;;;13.00;57.30;;;;;;2085863;28;1965;-46
2021/03/24 07:24:49;;;;;;;;;;;13.00;57.40;;;;;;2090387;28;1184;-46
2021/03/24 07:26:21;;;;;;;;;;;13.00;57.40;;;;;;2094121;28;1390;-46
2021/03/24 07:27:48;;;;;;;;;;;13.00;57.50;;;;;;2088015;28;1199;-48
2021/03/24 07:29:16;;;;;;;;;;;13.00;57.50;;;;;;2089979;28;1375;-45
2021/03/24 07:30:35;;;;;;;;;;;13.00;57.60;;;;;;2087225;28;1408;-46
2021/03/24 07:32:03;;;;;;;;;;;13.00;57.60;;;;;;2090525;28;1491;-47
2021/03/24 07:33:24;;;;;;;;;;;12.90;57.60;;;;;;2090140;28;1145;-47
2021/03/24 07:34:43;;;;;;;;;;;12.90;57.60;;;;;;2086446;28;1037;-46
2021/03/24 07:36:17;;;;;;;;;;;12.90;57.70;;;;;;2089339;28;1855;-46
2021/03/24 07:37:55;;;;;;;;;;;12.90;57.70;;;;;;2077812;28;1414;-46
2021/03/24 07:39:26;;;;;;;;;;;12.90;57.70;;;;;;2087485;28;1359;-47
2021/03/24 07:41:04;;;;;;;;;;;12.90;57.80;;;;;;2088824;28;1398;-47
2021/03/24 07:42:27;;;;;;;;;;;12.90;57.90;;;;;;2089918;28;1128;-46
2021/03/24 07:44:09;;;;;;;;;;;12.90;57.90;;;;;;2087962;28;1148;-47
2021/03/24 07:45:28;;;;;;;;;;;12.90;58.50;;;;;;2087155;28;1345;-47
2021/03/24 07:46:56;;;;;;;;;;;12.90;58.00;;;;;;2089257;28;1156;-46
2021/03/24 07:48:23;;;;;;;;;;;12.80;57.90;;;;;;2091163;28;1276;-46
2021/03/24 07:50:05;;;;;;;;;;;12.80;57.90;;;;;;2088882;28;1281;-47
2021/03/24 07:51:49;;;;;;;;;;;12.80;58.00;;;;;;2090539;28;1417;-46
2021/03/24 07:53:12;;;;;;;;;;;12.80;58.00;;;;;;2090293;28;1355;-46
2021/03/24 07:54:31;;;;;;;;;;;12.80;58.50;;;;;;2086399;28;1184;-47
2021/03/24 07:56:14;;;;;;;;;;;12.80;58.10;;;;;;2089522;28;1273;-46
2021/03/24 07:57:35;;;;;;;;;;;12.80;58.10;;;;;;2088436;28;1249;-46
2021/03/24 07:59:12;;;;;;;;;;;12.80;58.70;;;;;;2084971;28;1156;-46
2021/03/24 08:00:33;;;;;;;;;;;12.80;58.10;;;;;;2088040;28;1326;-46
2021/03/24 08:02:11;;;;;;;;;;;12.80;58.20;;;;;;2089798;28;1499;-48
2021/03/24 08:03:31;;;;;;;;;;;12.70;58.10;;;;;;2088821;28;2001;-48
2021/03/24 08:04:53;;;;;;;;;;;12.80;58.30;;;;;;2091290;28;1199;-48
2021/03/24 08:06:28;;;;;;;;;;;12.80;58.30;;;;;;2090096;28;1211;-48
2021/03/24 08:07:47;;;;;;;;;;;12.70;58.20;;;;;;2088766;28;1363;-47
2021/03/24 08:09:09;;;;;;;;;;;12.70;58.40;;;;;;2089750;28;1194;-48
2021/03/24 08:10:41;;;;;;;;;;;12.70;58.40;;;;;;2089248;28;1346;-47
2021/03/24 08:12:19;;;;;;;;;;;12.70;58.40;;;;;;2089682;28;1528;-48
2021/03/24 08:13:38;;;;;;;;;;;12.70;58.40;;;;;;2090061;28;1223;-49
2021/03/24 08:15:09;;;;;;;;;;;12.70;58.40;;;;;;2090233;28;1165;-48